Terminal Aerodrome Forecast
Issued by NWS

Home | Current Version | Previous Version | Text Only | Print | Product List | Glossary On
Versions: 1 2 3 4 5 6 7 8 9 10 11 12 13 14 15 16 17 18 19 20 21 22 23
000
FTPQ31 PGUM 042327
TAFGUM
TAF

TAF
PTYA 042327Z 0500/0524 35025G45KT 6SM SHRA SCT015 BKN030 OVC100
      TEMPO 0501/0505 2SM +SHRA OVC015
     FM050600 33040G55KT 5SM RA SCT010 BKN030 OVC080
     FM051200 30050G70KT 3SM +SHRA SCT010 OVC030
     FM052300 24040G60KT 5SM SHRA SCT010 BKN030 BKN090=

USA.gov is the U.S. government's official web portal to all federal, state and local government web resources and services.